Time;durP1;ratioP1;P1;durP2;ratioP2;P2;SDS_P1;SDS_P2;PMS_P1;PMS_P2;Temp;Humidity;BMP_temperature;BMP_pressure;BME280_temperature;BME280_humidity;BME280_pressure;Samples;Min_cycle;Max_cycle;Signal;HPM_P1;HPM_P2
2021/08/05 00:01:28;;;;;;;9.88;5.57;;;;;;;;;;5024817;28;20084;-64
2021/08/05 00:03:55;;;;;;;9.70;5.47;;;;;;;;;;5027175;28;20077;-64
2021/08/05 00:06:23;;;;;;;;;;;;;;;;;;5029045;28;20494;-64
2021/08/05 00:08:49;;;;;;;9.32;5.50;;;;;;;;;;5035833;28;20372;-64
2021/08/05 00:11:16;;;;;;;8.88;6.07;;;;;;;;;;5030357;28;20121;-64
2021/08/05 00:13:42;;;;;;;9.73;6.10;;;;;;;;;;5023192;28;20133;-64
2021/08/05 00:16:09;;;;;;;8.48;5.40;;;;;;;;;;5027681;28;20431;-65
2021/08/05 00:18:35;;;;;;;13.88;5.75;;;;;;;;;;5024140;28;20084;-64
2021/08/05 00:21:02;;;;;;;10.05;6.03;;;;;;;;;;5020841;28;20137;-64
2021/08/05 00:23:29;;;;;;;7.15;6.25;;;;;;;;;;5020754;28;20085;-64
2021/08/05 00:25:56;;;;;;;12.23;6.38;;;;;;;;;;5022782;28;20736;-64
2021/08/05 00:28:22;;;;;;;9.50;6.35;;;;;;;;;;5024747;28;20516;-64
2021/08/05 00:30:48;;;;;;;10.25;5.80;;;;;;;;;;5023863;28;20076;-64
2021/08/05 00:33:15;;;;;;;11.02;6.20;;;;;;;;;;5028775;28;20389;-64
2021/08/05 00:35:41;;;;;;;8.88;5.40;;;;;;;;;;5033086;28;20132;-64
2021/08/05 00:38:08;;;;;;;9.10;5.63;;;;;;;;;;5034300;28;20073;-64
2021/08/05 00:40:38;;;;;;;8.27;5.03;;;;;;;;;;5030436;28;20060;-64
2021/08/05 00:43:04;;;;;;;6.13;4.10;;;;;;;;;;5026368;28;20124;-64
2021/08/05 00:45:32;;;;;;;7.93;5.05;;;;;;;;;;5022730;28;20847;-64
2021/08/05 00:47:58;;;;;;;10.70;5.20;;;;;;;;;;5029900;28;20085;-64
2021/08/05 00:50:26;;;;;;;9.18;5.10;;;;;;;;;;5029220;28;20087;-64
2021/08/05 00:52:52;;;;;;;6.05;5.20;;;;;;;;;;5023498;28;20478;-64
2021/08/05 00:55:19;;;;;;;15.63;5.57;;;;;;;;;;5012132;28;20085;-64
2021/08/05 00:57:45;;;;;;;10.60;5.63;;;;;;;;;;5025040;28;20046;-64
2021/08/05 01:00:13;;;;;;;7.75;5.85;;;;;;;;;;5025557;28;20081;-64
2021/08/05 01:02:45;;;;;;;9.48;5.82;;;;;;;;;;5027197;28;20125;-64
2021/08/05 01:05:14;;;;;;;13.13;5.75;;;;;;;;;;5022844;28;20054;-64
2021/08/05 01:07:44;;;;;;;13.68;5.63;;;;;;;;;;5025243;28;20123;-64
2021/08/05 01:10:18;;;;;;;11.23;6.18;;;;;;;;;;5024641;28;20045;-64
2021/08/05 01:12:49;;;;;;;10.65;5.90;;;;;;;;;;5023918;28;20053;-64
2021/08/05 01:15:19;;;;;;;9.82;6.13;;;;;;;;;;5023523;28;20078;-64
2021/08/05 01:17:48;;;;;;;8.20;6.20;;;;;;;;;;5027787;28;20133;-64
2021/08/05 01:20:16;;;;;;;8.93;6.45;;;;;;;;;;5024749;28;20128;-64
2021/08/05 01:22:46;;;;;;;9.63;6.18;;;;;;;;;;5026678;28;20548;-64
2021/08/05 01:25:28;;;;;;;9.15;6.38;;;;;;;;;;5024994;28;20084;-64
2021/08/05 01:27:55;;;;;;;7.00;5.72;;;;;;;;;;5030076;28;20124;-63
2021/08/05 01:30:22;;;;;;;8.88;5.13;;;;;;;;;;5028681;28;20064;-64
2021/08/05 01:32:49;;;;;;;8.07;5.50;;;;;;;;;;5024897;28;20133;-64
2021/08/05 01:35:15;;;;;;;7.85;5.75;;;;;;;;;;5024079;28;20045;-64
2021/08/05 01:37:42;;;;;;;8.88;6.20;;;;;;;;;;5024611;28;20505;-64
2021/08/05 01:40:10;;;;;;;13.65;5.97;;;;;;;;;;5024168;28;20058;-64
2021/08/05 01:42:37;;;;;;;7.43;5.97;;;;;;;;;;5022182;28;20045;-64
2021/08/05 01:45:05;;;;;;;11.90;6.47;;;;;;;;;;5023661;28;20141;-64
2021/08/05 01:47:31;;;;;;;7.60;5.43;;;;;;;;;;5026198;28;20069;-64
2021/08/05 01:49:58;;;;;;;9.35;5.07;;;;;;;;;;5022939;28;20209;-64
2021/08/05 01:52:25;;;;;;;8.60;5.30;;;;;;;;;;5025526;28;20124;-64
2021/08/05 01:54:51;;;;;;;7.60;5.95;;;;;;;;;;5024445;28;20101;-64
2021/08/05 01:57:18;;;;;;;8.15;5.65;;;;;;;;;;5028725;28;20101;-64
2021/08/05 01:59:44;;;;;;;8.43;6.15;;;;;;;;;;5023812;28;20588;-64
2021/08/05 02:02:12;;;;;;;8.77;5.85;;;;;;;;;;5025579;28;20510;-64
2021/08/05 02:04:38;;;;;;;;;;;;;;;;;;5027072;28;20045;-64
2021/08/05 02:07:12;;;;;;;11.05;5.72;;;;;;;;;;5025428;28;20051;-64
2021/08/05 02:09:52;;;;;;;8.63;6.30;;;;;;;;;;5026584;28;20049;-64
2021/08/05 02:12:19;;;;;;;9.45;6.88;;;;;;;;;;5023708;28;20053;-64
2021/08/05 02:14:46;;;;;;;11.45;6.43;;;;;;;;;;5019858;28;20133;-64
2021/08/05 02:17:12;;;;;;;11.60;6.43;;;;;;;;;;5022757;28;20050;-64
2021/08/05 02:19:39;;;;;;;14.57;6.85;;;;;;;;;;5023905;28;20136;-64
2021/08/05 02:22:06;;;;;;;9.57;6.75;;;;;;;;;;5023427;28;20125;-64
2021/08/05 02:24:33;;;;;;;7.55;5.80;;;;;;;;;;5021166;28;20128;-64
2021/08/05 02:27:00;;;;;;;12.73;6.13;;;;;;;;;;5022210;28;20568;-64
2021/08/05 02:29:27;;;;;;;11.55;6.43;;;;;;;;;;5019780;28;20363;-64
2021/08/05 02:31:54;;;;;;;11.82;6.68;;;;;;;;;;5039296;28;20094;-64
2021/08/05 02:34:21;;;;;;;10.00;6.30;;;;;;;;;;5024710;28;20576;-64
2021/08/05 02:36:48;;;;;;;9.40;5.90;;;;;;;;;;5026711;28;20060;-64
2021/08/05 02:39:14;;;;;;;7.53;5.15;;;;;;;;;;5021749;28;20137;-64
2021/08/05 02:41:41;;;;;;;8.20;5.38;;;;;;;;;;5022186;28;20085;-64
2021/08/05 02:44:08;;;;;;;8.73;5.63;;;;;;;;;;5007553;28;20550;-64
2021/08/05 02:46:34;;;;;;;9.63;6.43;;;;;;;;;;5028088;28;20568;-64
2021/08/05 02:49:02;;;;;;;10.73;6.43;;;;;;;;;;5026427;28;20129;-64
2021/08/05 02:51:30;;;;;;;12.20;6.88;;;;;;;;;;5018822;28;20132;-65
2021/08/05 02:53:56;;;;;;;7.72;6.45;;;;;;;;;;5019561;28;20068;-64
2021/08/05 02:56:23;;;;;;;8.77;6.43;;;;;;;;;;5021972;28;20125;-64
2021/08/05 02:58:49;;;;;;;8.15;6.18;;;;;;;;;;5025621;28;20081;-64
2021/08/05 03:01:18;;;;;;;9.15;5.35;;;;;;;;;;5016335;28;20141;-64
2021/08/05 03:03:49;;;;;;;9.05;5.55;;;;;;;;;;5023730;28;20065;-64
2021/08/05 03:06:15;;;;;;;9.38;6.07;;;;;;;;;;5025905;28;20132;-64
2021/08/05 03:08:42;;;;;;;9.15;5.72;;;;;;;;;;5021746;28;20124;-64
2021/08/05 03:11:09;;;;;;;12.02;6.05;;;;;;;;;;5025468;28;20134;-64
2021/08/05 03:13:35;;;;;;;8.48;6.18;;;;;;;;;;5021782;28;20054;-65
2021/08/05 03:16:02;;;;;;;13.25;6.80;;;;;;;;;;5025020;28;20054;-64
2021/08/05 03:18:28;;;;;;;9.93;6.03;;;;;;;;;;5029962;28;20144;-64
2021/08/05 03:20:55;;;;;;;11.98;6.00;;;;;;;;;;5026602;28;20140;-64
2021/08/05 03:23:21;;;;;;;11.00;6.53;;;;;;;;;;5024214;28;20099;-64
2021/08/05 03:25:48;;;;;;;11.90;6.32;;;;;;;;;;5024513;28;20141;-64
2021/08/05 03:28:14;;;;;;;12.07;6.50;;;;;;;;;;5027119;28;20141;-65
2021/08/05 03:30:40;;;;;;;11.80;6.28;;;;;;;;;;5020147;28;20486;-64
2021/08/05 03:33:07;;;;;;;8.13;6.20;;;;;;;;;;5028145;28;20049;-64
2021/08/05 03:35:33;;;;;;;13.15;6.63;;;;;;;;;;5021528;28;20324;-64
2021/08/05 03:38:00;;;;;;;14.50;6.40;;;;;;;;;;5023736;28;20133;-64
2021/08/05 03:40:27;;;;;;;9.57;5.82;;;;;;;;;;5022683;28;20088;-64
2021/08/05 03:42:53;;;;;;;10.45;6.07;;;;;;;;;;5019247;28;20457;-64
2021/08/05 03:45:20;;;;;;;8.38;6.43;;;;;;;;;;5020140;28;20172;-64
2021/08/05 03:47:47;;;;;;;9.25;6.78;;;;;;;;;;5026838;28;20133;-64
2021/08/05 03:50:14;;;;;;;13.13;6.07;;;;;;;;;;5022209;28;20532;-64
2021/08/05 03:52:40;;;;;;;7.45;5.50;;;;;;;;;;5018007;28;20153;-64
2021/08/05 03:55:12;;;;;;;10.80;6.60;;;;;;;;;;5019841;28;20136;-64
2021/08/05 03:57:43;;;;;;;8.70;5.78;;;;;;;;;;5020920;28;20061;-64
2021/08/05 04:00:12;;;;;;;11.35;6.97;;;;;;;;;;5022078;28;20053;-64
2021/08/05 04:02:38;;;;;;;8.43;6.35;;;;;;;;;;5023682;28;20080;-64
2021/08/05 04:05:05;;;;;;;7.32;5.95;;;;;;;;;;5022931;28;20080;-64
2021/08/05 04:07:32;;;;;;;7.40;5.05;;;;;;;;;;5022226;28;20073;-64
2021/08/05 04:09:59;;;;;;;5.18;4.47;;;;;;;;;;5020938;28;20064;-64
2021/08/05 04:12:26;;;;;;;8.02;4.60;;;;;;;;;;5023498;28;20805;-64
2021/08/05 04:14:53;;;;;;;5.60;4.05;;;;;;;;;;5019450;28;20494;-64
2021/08/05 04:17:20;;;;;;;3.53;3.22;;;;;;;;;;5018103;28;20089;-65
2021/08/05 04:19:46;;;;;;;4.25;3.85;;;;;;;;;;5021635;28;20132;-65
2021/08/05 04:22:15;;;;;;;6.35;4.45;;;;;;;;;;5017780;28;20092;-64
2021/08/05 04:24:41;;;;;;;5.07;4.40;;;;;;;;;;5021344;28;20136;-64
2021/08/05 04:27:08;;;;;;;8.73;4.40;;;;;;;;;;5019994;28;20096;-64
2021/08/05 04:29:35;;;;;;;6.43;4.75;;;;;;;;;;5023611;28;20124;-64
2021/08/05 04:32:01;;;;;;;6.18;4.05;;;;;;;;;;5025043;28;20132;-64
2021/08/05 04:34:28;;;;;;;4.90;3.95;;;;;;;;;;5023846;28;20636;-64
2021/08/05 04:36:54;;;;;;;4.97;3.70;;;;;;;;;;5026043;28;20092;-64
2021/08/05 04:39:21;;;;;;;6.20;4.20;;;;;;;;;;5023507;28;20049;-64
2021/08/05 04:41:47;;;;;;;5.82;3.70;;;;;;;;;;5028054;28;20129;-64
2021/08/05 04:44:14;;;;;;;5.55;4.75;;;;;;;;;;5030975;28;20134;-64
2021/08/05 04:46:40;;;;;;;8.20;5.15;;;;;;;;;;5029033;28;20132;-64
2021/08/05 04:49:07;;;;;;;7.05;5.15;;;;;;;;;;5030820;28;20053;-64
2021/08/05 04:51:34;;;;;;;6.50;4.80;;;;;;;;;;5028209;28;20573;-64
2021/08/05 04:54:02;;;;;;;11.52;4.70;;;;;;;;;;5028435;28;20771;-64
2021/08/05 04:56:29;;;;;;;6.45;4.70;;;;;;;;;;5025729;28;20050;-64
2021/08/05 04:58:56;;;;;;;7.57;4.93;;;;;;;;;;5024115;28;20137;-64
2021/08/05 05:01:22;;;;;;;7.78;4.93;;;;;;;;;;5028969;28;20132;-64
2021/08/05 05:03:49;;;;;;;6.18;4.97;;;;;;;;;;5027510;28;20057;-64
2021/08/05 05:06:16;;;;;;;9.65;5.35;;;;;;;;;;5024927;28;20092;-64
2021/08/05 05:08:43;;;;;;;7.80;5.50;;;;;;;;;;5019520;28;20073;-64
2021/08/05 05:11:09;;;;;;;16.63;5.78;;;;;;;;;;5023368;28;20133;-64
2021/08/05 05:13:36;;;;;;;11.88;5.72;;;;;;;;;;5027805;28;20165;-64
2021/08/05 05:16:03;;;;;;;8.13;5.57;;;;;;;;;;5024821;28;20073;-64
2021/08/05 05:18:29;;;;;;;9.48;4.88;;;;;;;;;;5029785;28;20140;-64
2021/08/05 05:20:56;;;;;;;7.97;4.85;;;;;;;;;;5029513;28;20162;-64
2021/08/05 05:23:22;;;;;;;6.95;5.43;;;;;;;;;;5029248;28;20161;-64
2021/08/05 05:25:49;;;;;;;6.72;5.05;;;;;;;;;;5024796;28;20152;-64
2021/08/05 05:28:16;;;;;;;6.65;5.30;;;;;;;;;;5030306;28;20129;-64
2021/08/05 05:30:43;;;;;;;11.90;5.57;;;;;;;;;;5022867;28;20077;-63
2021/08/05 05:33:09;;;;;;;10.43;6.00;;;;;;;;;;5025695;28;20089;-64
2021/08/05 05:35:37;;;;;;;8.45;5.32;;;;;;;;;;5028295;28;20660;-64
2021/08/05 05:38:04;;;;;;;11.95;5.18;;;;;;;;;;5027482;28;20057;-64
2021/08/05 05:40:30;;;;;;;7.35;5.32;;;;;;;;;;5019078;28;20049;-63
2021/08/05 05:43:00;;;;;;;7.93;4.78;;;;;;;;;;5024697;28;20146;-65
2021/08/05 05:45:27;;;;;;;8.32;5.68;;;;;;;;;;5024931;28;20054;-64
2021/08/05 05:47:53;;;;;;;10.02;6.18;;;;;;;;;;5026284;28;20036;-64
2021/08/05 05:50:20;;;;;;;8.13;6.30;;;;;;;;;;5025564;28;20084;-64
2021/08/05 05:52:47;;;;;;;8.25;6.07;;;;;;;;;;5024368;28;20092;-64
2021/08/05 05:55:14;;;;;;;7.53;6.27;;;;;;;;;;5024559;28;20177;-64
2021/08/05 05:57:41;;;;;;;9.63;6.43;;;;;;;;;;5023272;28;20462;-64
2021/08/05 06:00:09;;;;;;;8.43;5.95;;;;;;;;;;5027799;28;20479;-64
2021/08/05 06:02:35;;;;;;;9.37;6.50;;;;;;;;;;5025748;28;20069;-64
2021/08/05 06:05:03;;;;;;;12.15;7.28;;;;;;;;;;5018612;28;20045;-63
2021/08/05 06:07:29;;;;;;;8.95;6.15;;;;;;;;;;5025048;28;20080;-64
2021/08/05 06:09:56;;;;;;;8.50;6.18;;;;;;;;;;5021988;28;20164;-64
2021/08/05 06:12:23;;;;;;;8.93;5.75;;;;;;;;;;5023282;28;20140;-64
2021/08/05 06:14:51;;;;;;;7.25;5.82;;;;;;;;;;5020965;28;20144;-64
2021/08/05 06:17:18;;;;;;;10.10;5.93;;;;;;;;;;5018756;28;20045;-64
2021/08/05 06:19:44;;;;;;;7.33;6.20;;;;;;;;;;5022493;28;20045;-64
2021/08/05 06:22:11;;;;;;;8.45;6.55;;;;;;;;;;5019354;28;20081;-64
2021/08/05 06:24:37;;;;;;;7.18;3.92;;;;;;;;;;5025526;28;20049;-64
2021/08/05 06:27:07;;;;;;;10.10;3.80;;;;;;;;;;5025069;28;20088;-64
2021/08/05 06:29:33;;;;;;;7.32;3.40;;;;;;;;;;5024446;28;20165;-63
2021/08/05 06:32:00;;;;;;;5.80;3.50;;;;;;;;;;5029212;28;20079;-64
2021/08/05 06:34:27;;;;;;;8.10;3.90;;;;;;;;;;5028049;28;20471;-64
2021/08/05 06:36:53;;;;;;;13.43;5.13;;;;;;;;;;5029243;28;20669;-64
2021/08/05 06:39:20;;;;;;;12.65;4.72;;;;;;;;;;5027016;28;20119;-64
2021/08/05 06:41:47;;;;;;;12.17;5.27;;;;;;;;;;5025206;28;20099;-64
2021/08/05 06:44:14;;;;;;;10.82;5.70;;;;;;;;;;5023345;28;20085;-64
2021/08/05 06:46:40;;;;;;;9.48;5.05;;;;;;;;;;5030018;28;20132;-64
2021/08/05 06:49:09;;;;;;;12.65;5.45;;;;;;;;;;5025654;28;20067;-64
2021/08/05 06:51:35;;;;;;;10.18;4.63;;;;;;;;;;5027278;28;20497;-64
2021/08/05 06:54:01;;;;;;;9.63;4.47;;;;;;;;;;5027414;28;20132;-64
2021/08/05 06:56:28;;;;;;;8.52;4.57;;;;;;;;;;5027572;28;20128;-64
2021/08/05 06:58:56;;;;;;;10.18;4.85;;;;;;;;;;5028141;28;20084;-64
2021/08/05 07:01:23;;;;;;;11.60;5.20;;;;;;;;;;5018916;28;20053;-64
2021/08/05 07:03:49;;;;;;;8.47;4.23;;;;;;;;;;5025140;28;20053;-64
2021/08/05 07:06:17;;;;;;;5.60;3.42;;;;;;;;;;5023671;28;20082;-64
2021/08/05 07:08:43;;;;;;;7.78;3.50;;;;;;;;;;5023876;28;20511;-64
2021/08/05 07:11:10;;;;;;;4.32;2.42;;;;;;;;;;5026539;28;20096;-64
2021/08/05 07:13:36;;;;;;;6.68;3.25;;;;;;;;;;5018445;28;20045;-64
2021/08/05 07:16:03;;;;;;;4.95;2.60;;;;;;;;;;5024624;28;20076;-64
2021/08/05 07:18:29;;;;;;;3.80;2.57;;;;;;;;;;5022151;28;20504;-64
2021/08/05 07:20:57;;;;;;;4.05;2.97;;;;;;;;;;5023405;28;20312;-64
2021/08/05 07:23:24;;;;;;;6.90;2.63;;;;;;;;;;5026521;28;20128;-64
2021/08/05 07:25:51;;;;;;;5.57;2.60;;;;;;;;;;5021042;28;20148;-64
2021/08/05 07:28:18;;;;;;;5.10;2.70;;;;;;;;;;5019443;28;20587;-64
2021/08/05 07:30:44;;;;;;;4.68;2.50;;;;;;;;;;5023008;28;20517;-63
2021/08/05 07:33:11;;;;;;;4.03;2.40;;;;;;;;;;5030985;28;20072;-64
2021/08/05 07:35:38;;;;;;;3.08;2.25;;;;;;;;;;5025309;28;20049;-64
2021/08/05 07:38:04;;;;;;;5.50;2.20;;;;;;;;;;5026339;28;20046;-64
2021/08/05 07:40:31;;;;;;;3.97;2.47;;;;;;;;;;5022494;28;20125;-64
2021/08/05 07:42:57;;;;;;;3.92;2.53;;;;;;;;;;5023935;28;20111;-63
2021/08/05 07:45:24;;;;;;;3.42;2.47;;;;;;;;;;5016659;28;20046;-64
2021/08/05 07:47:50;;;;;;;3.03;2.30;;;;;;;;;;5028116;28;20052;-64
2021/08/05 07:50:16;;;;;;;5.22;2.40;;;;;;;;;;5025016;28;20472;-64
2021/08/05 07:52:43;;;;;;;3.08;2.20;;;;;;;;;;5027115;28;20120;-64
2021/08/05 07:55:10;;;;;;;3.72;2.63;;;;;;;;;;5022751;28;20218;-64
2021/08/05 07:57:36;;;;;;;4.73;2.37;;;;;;;;;;5027997;28;20639;-64
2021/08/05 08:00:04;;;;;;;3.95;2.50;;;;;;;;;;5016104;28;20828;-64
2021/08/05 08:02:31;;;;;;;3.30;2.53;;;;;;;;;;5021531;28;20137;-64
2021/08/05 08:04:58;;;;;;;5.77;2.63;;;;;;;;;;5025558;28;20045;-64
2021/08/05 08:07:24;;;;;;;2.67;2.17;;;;;;;;;;5024553;28;20092;-63
2021/08/05 08:09:51;;;;;;;2.67;2.17;;;;;;;;;;5020937;28;20058;-64
2021/08/05 08:12:17;;;;;;;4.18;2.50;;;;;;;;;;5021881;28;20335;-64
2021/08/05 08:14:44;;;;;;;3.28;2.22;;;;;;;;;;5018874;28;20128;-64
2021/08/05 08:17:10;;;;;;;4.93;2.25;;;;;;;;;;5029004;28;20064;-64
2021/08/05 08:19:38;;;;;;;4.47;2.28;;;;;;;;;;5020036;28;20049;-63
2021/08/05 08:22:06;;;;;;;3.83;2.75;;;;;;;;;;5026471;28;20088;-64
2021/08/05 08:24:33;;;;;;;3.28;2.22;;;;;;;;;;5023191;28;20083;-63
2021/08/05 08:27:00;;;;;;;4.65;2.10;;;;;;;;;;5026094;28;20054;-64
2021/08/05 08:29:26;;;;;;;5.10;2.42;;;;;;;;;;5026391;28;20512;-64
2021/08/05 08:31:53;;;;;;;4.32;1.95;;;;;;;;;;5024096;28;20183;-64
2021/08/05 08:34:20;;;;;;;3.10;2.15;;;;;;;;;;5025230;28;20060;-64
2021/08/05 08:36:46;;;;;;;4.97;2.38;;;;;;;;;;5021884;28;20081;-64
2021/08/05 08:39:14;;;;;;;4.28;2.65;;;;;;;;;;5023641;28;20133;-64
2021/08/05 08:41:41;;;;;;;6.75;2.30;;;;;;;;;;5022762;28;20128;-63
2021/08/05 08:44:08;;;;;;;3.47;2.25;;;;;;;;;;5028328;28;20108;-64
2021/08/05 08:46:35;;;;;;;5.35;2.25;;;;;;;;;;5028458;28;20567;-63
2021/08/05 08:49:03;;;;;;;4.18;2.45;;;;;;;;;;5031946;28;20056;-63
2021/08/05 08:51:31;;;;;;;3.85;1.98;;;;;;;;;;5031189;28;20092;-63
2021/08/05 08:54:01;;;;;;;6.18;2.08;;;;;;;;;;5022504;28;20084;-63
2021/08/05 08:56:27;;;;;;;3.58;2.00;;;;;;;;;;5028860;28;20085;-63
2021/08/05 08:58:54;;;;;;;4.63;2.22;;;;;;;;;;5030584;28;20042;-64
2021/08/05 09:01:21;;;;;;;2.60;1.77;;;;;;;;;;5020756;28;20607;-63
2021/08/05 09:03:47;;;;;;;5.80;2.45;;;;;;;;;;5023135;28;20088;-63
2021/08/05 09:06:14;;;;;;;2.90;2.07;;;;;;;;;;5022105;28;20056;-63
2021/08/05 09:08:41;;;;;;;5.47;2.28;;;;;;;;;;5027509;28;20124;-63
2021/08/05 09:11:08;;;;;;;6.78;2.40;;;;;;;;;;5023060;28;20166;-64
2021/08/05 09:13:35;;;;;;;4.00;2.42;;;;;;;;;;5028939;28;20085;-63
2021/08/05 09:16:02;;;;;;;6.43;2.45;;;;;;;;;;5032851;28;20050;-64
2021/08/05 09:18:31;;;;;;;4.97;2.60;;;;;;;;;;5029333;28;20483;-64
2021/08/05 09:21:07;;;;;;;5.32;1.88;;;;;;;;;;5024201;28;20054;-64
2021/08/05 09:23:53;;;;;;;6.95;2.78;;;;;;;;;;5026002;28;20161;-63
2021/08/05 09:26:40;;;;;;;4.72;2.20;;;;;;;;;;5030879;28;20077;-63
2021/08/05 09:29:14;;;;;;;5.00;2.42;;;;;;;;;;5030749;28;20128;-63
2021/08/05 09:31:40;;;;;;;6.15;2.58;;;;;;;;;;5029661;28;20505;-64
2021/08/05 09:34:08;;;;;;;4.47;2.20;;;;;;;;;;5026473;28;20053;-64
2021/08/05 09:36:35;;;;;;;4.53;2.50;;;;;;;;;;5027290;28;20327;-64
2021/08/05 09:39:02;;;;;;;;;;;;;;;;;;5028761;28;20053;-63
2021/08/05 09:41:28;;;;;;;3.58;2.45;;;;;;;;;;5026326;28;19920;-63
2021/08/05 09:44:02;;;;;;;5.63;2.87;;;;;;;;;;5028837;28;20453;-64
2021/08/05 09:46:30;;;;;;;3.00;2.20;;;;;;;;;;5019901;28;20085;-63
2021/08/05 09:48:57;;;;;;;6.25;2.28;;;;;;;;;;5018397;28;20425;-64
2021/08/05 09:51:24;;;;;;;4.65;2.30;;;;;;;;;;5024121;28;20077;-64
2021/08/05 09:53:57;;;;;;;6.73;2.90;;;;;;;;;;5022032;28;20103;-64
2021/08/05 09:56:24;;;;;;;8.63;2.47;;;;;;;;;;5024296;28;20390;-64
2021/08/05 09:58:51;;;;;;;6.10;3.00;;;;;;;;;;5027135;28;20501;-63
2021/08/05 10:01:18;;;;;;;5.30;2.43;;;;;;;;;;5021289;28;20053;-64
2021/08/05 10:03:45;;;;;;;6.30;2.50;;;;;;;;;;5023254;28;20120;-63
2021/08/05 10:06:11;;;;;;;4.28;2.40;;;;;;;;;;5023744;28;20118;-64
2021/08/05 10:08:38;;;;;;;5.70;2.22;;;;;;;;;;5024809;28;20057;-64
2021/08/05 10:11:05;;;;;;;6.10;2.35;;;;;;;;;;5021497;28;20519;-64
2021/08/05 10:13:37;;;;;;;3.88;2.30;;;;;;;;;;5026388;28;20080;-64
2021/08/05 10:16:04;;;;;;;6.35;2.88;;;;;;;;;;5021971;28;20163;-63
2021/08/05 10:18:30;;;;;;;;;;;;;;;;;;5022099;28;20557;-64
2021/08/05 10:20:59;;;;;;;6.22;2.53;;;;;;;;;;5026290;28;19972;-64
2021/08/05 10:23:26;;;;;;;6.90;2.30;;;;;;;;;;5030890;28;20060;-65
2021/08/05 10:25:56;;;;;;;8.20;2.20;;;;;;;;;;5027491;28;20084;-63
2021/08/05 10:28:23;;;;;;;4.85;2.10;;;;;;;;;;5024639;28;20129;-64
2021/08/05 10:30:50;;;;;;;5.15;2.05;;;;;;;;;;5022961;28;20133;-64
2021/08/05 10:33:17;;;;;;;;;;;;;;;;;;5025427;28;20077;-65
2021/08/05 10:35:47;;;;;;;5.80;2.47;;;;;;;;;;5017745;28;19975;-64
2021/08/05 10:38:17;;;;;;;4.80;2.28;;;;;;;;;;5019132;28;20136;-61
2021/08/05 10:40:48;;;;;;;5.53;2.08;;;;;;;;;;5015463;28;20080;-61
2021/08/05 10:43:15;;;;;;;3.88;2.60;;;;;;;;;;5029398;28;20160;-61
2021/08/05 10:45:41;;;;;;;4.72;2.25;;;;;;;;;;5017313;28;20129;-61
2021/08/05 10:48:11;;;;;;;2.83;2.03;;;;;;;;;;5028499;28;20132;-61
2021/08/05 10:50:42;;;;;;;4.10;2.20;;;;;;;;;;5023910;28;20433;-60
2021/08/05 10:53:13;;;;;;;3.67;2.20;;;;;;;;;;5022213;28;20466;-62
2021/08/05 10:55:41;;;;;;;6.60;2.22;;;;;;;;;;5022698;28;20485;-61
2021/08/05 10:58:13;;;;;;;4.47;2.10;;;;;;;;;;5024802;28;20073;-61
2021/08/05 11:00:50;;;;;;;4.55;2.10;;;;;;;;;;5028699;28;20115;-62
2021/08/05 11:03:32;;;;;;;3.95;2.30;;;;;;;;;;5023103;28;20052;-61
2021/08/05 11:06:00;;;;;;;4.20;2.30;;;;;;;;;;5024844;28;20131;-61
2021/08/05 11:08:26;;;;;;;;;;;;;;;;;;5020486;28;20053;-61
2021/08/05 11:11:16;;;;;;;3.28;2.45;;;;;;;;;;5015255;28;20104;-62
2021/08/05 11:13:43;;;;;;;3.60;2.15;;;;;;;;;;5017528;28;20074;-61
2021/08/05 11:16:10;;;;;;;4.73;2.20;;;;;;;;;;5017118;28;20088;-61
2021/08/05 11:18:36;;;;;;;3.17;2.20;;;;;;;;;;5021992;28;20485;-61
2021/08/05 11:21:03;;;;;;;3.70;2.15;;;;;;;;;;5019169;28;20086;-61
2021/08/05 11:23:34;;;;;;;3.47;2.17;;;;;;;;;;5018394;28;20132;-61
2021/08/05 11:26:11;;;;;;;3.35;2.03;;;;;;;;;;5027609;28;20045;-61
2021/08/05 11:28:44;;;;;;;3.35;2.20;;;;;;;;;;5022789;28;20108;-62
2021/08/05 11:31:11;;;;;;;4.55;2.03;;;;;;;;;;5024946;28;20144;-61
2021/08/05 11:33:41;;;;;;;7.00;2.60;;;;;;;;;;5024112;28;20160;-62
2021/08/05 11:36:10;;;;;;;5.28;2.30;;;;;;;;;;5023787;28;20102;-61
2021/08/05 11:38:55;;;;;;;4.07;2.20;;;;;;;;;;5025084;28;20140;-61
2021/08/05 11:41:40;;;;;;;2.53;2.05;;;;;;;;;;5021733;28;20144;-62
2021/08/05 11:44:36;;;;;;;4.60;2.45;;;;;;;;;;5021511;28;20045;-61
2021/08/05 11:47:05;;;;;;;3.63;2.00;;;;;;;;;;5016431;28;20085;-62
2021/08/05 11:49:41;;;;;;;2.92;2.22;;;;;;;;;;5027937;28;20060;-61
2021/08/05 11:52:23;;;;;;;4.32;2.08;;;;;;;;;;5026938;28;20088;-62
2021/08/05 11:55:10;;;;;;;3.25;2.42;;;;;;;;;;5030219;28;20468;-61
2021/08/05 11:57:40;;;;;;;4.82;2.40;;;;;;;;;;5024163;28;20084;-61
2021/08/05 12:00:08;;;;;;;5.82;2.20;;;;;;;;;;5028344;28;20501;-62
2021/08/05 12:02:35;;;;;;;4.70;2.20;;;;;;;;;;5028179;28;20053;-61
2021/08/05 12:05:02;;;;;;;3.83;2.30;;;;;;;;;;5030986;28;20058;-61
2021/08/05 12:07:30;;;;;;;7.20;2.53;;;;;;;;;;5026758;28;20077;-62
2021/08/05 12:10:13;;;;;;;2.25;2.00;;;;;;;;;;5030180;28;20073;-62
2021/08/05 12:12:41;;;;;;;3.55;2.03;;;;;;;;;;5031695;28;20106;-64
2021/08/05 12:15:08;;;;;;;3.47;2.17;;;;;;;;;;5035345;28;20077;-62
2021/08/05 12:17:36;;;;;;;4.65;2.55;;;;;;;;;;5028597;28;20048;-61
2021/08/05 12:20:05;;;;;;;3.72;2.25;;;;;;;;;;5030989;28;20081;-61
2021/08/05 12:22:33;;;;;;;2.53;2.15;;;;;;;;;;5031326;28;20137;-61
2021/08/05 12:25:05;;;;;;;5.00;2.10;;;;;;;;;;5025654;28;20089;-61
2021/08/05 12:27:33;;;;;;;3.90;2.50;;;;;;;;;;5024958;28;20141;-61
2021/08/05 12:30:03;;;;;;;5.85;2.45;;;;;;;;;;5028678;28;20084;-61
2021/08/05 12:32:30;;;;;;;2.85;2.17;;;;;;;;;;5024665;28;20128;-62
2021/08/05 12:34:56;;;;;;;4.78;2.42;;;;;;;;;;5030651;28;20088;-62
2021/08/05 12:37:23;;;;;;;4.17;2.30;;;;;;;;;;5031489;28;20054;-61
2021/08/05 12:39:49;;;;;;;3.50;2.25;;;;;;;;;;5028940;28;20128;-61
2021/08/05 12:42:16;;;;;;;2.83;1.87;;;;;;;;;;5023732;28;20686;-62
2021/08/05 12:44:43;;;;;;;5.40;2.20;;;;;;;;;;5029156;28;20494;-61
2021/08/05 12:47:10;;;;;;;3.15;2.10;;;;;;;;;;5029302;28;20156;-62
2021/08/05 12:49:37;;;;;;;3.47;2.28;;;;;;;;;;5024728;28;20084;-62
2021/08/05 12:52:04;;;;;;;4.70;2.47;;;;;;;;;;5021827;28;20088;-61
2021/08/05 12:54:31;;;;;;;4.05;2.25;;;;;;;;;;5032718;28;20173;-61
2021/08/05 12:56:59;;;;;;;4.13;1.98;;;;;;;;;;5025223;28;20137;-62
2021/08/05 12:59:41;;;;;;;3.45;2.25;;;;;;;;;;5025285;28;20109;-62
2021/08/05 13:02:09;;;;;;;2.80;2.15;;;;;;;;;;5020629;28;20136;-62
2021/08/05 13:04:40;;;;;;;5.10;2.25;;;;;;;;;;5017394;28;20053;-61
2021/08/05 13:07:07;;;;;;;3.65;2.20;;;;;;;;;;5024029;28;20089;-62
2021/08/05 13:09:33;;;;;;;;;;;;;;;;;;5022296;28;20107;-63
2021/08/05 13:12:01;;;;;;;2.95;2.17;;;;;;;;;;5025900;28;19921;-62
2021/08/05 13:14:32;;;;;;;3.85;2.38;;;;;;;;;;5020314;28;20475;-61
2021/08/05 13:17:03;;;;;;;3.60;2.10;;;;;;;;;;5027333;28;20046;-61
2021/08/05 13:19:30;;;;;;;7.47;4.65;;;;;;;;;;5017626;28;20064;-61
2021/08/05 13:21:57;;;;;;;6.68;3.65;;;;;;;;;;5019969;28;20046;-61
2021/08/05 13:24:28;;;;;;;4.07;2.30;;;;;;;;;;5023109;28;20511;-61
2021/08/05 13:26:58;;;;;;;4.25;2.35;;;;;;;;;;5023591;28;20132;-61
2021/08/05 13:29:44;;;;;;;5.07;2.35;;;;;;;;;;5023997;28;20046;-61
2021/08/05 13:32:22;;;;;;;3.78;2.70;;;;;;;;;;5020626;28;20512;-61
2021/08/05 13:35:16;;;;;;;4.60;2.50;;;;;;;;;;5019791;28;20077;-61
2021/08/05 13:37:43;;;;;;;4.05;2.33;;;;;;;;;;5019389;28;20977;-61
2021/08/05 13:40:19;;;;;;;3.35;2.47;;;;;;;;;;5027138;28;20083;-62
2021/08/05 13:42:46;;;;;;;4.13;2.20;;;;;;;;;;5024436;28;20064;-62
2021/08/05 13:45:13;;;;;;;4.35;2.47;;;;;;;;;;5024859;28;20452;-61
2021/08/05 13:47:39;;;;;;;5.20;2.80;;;;;;;;;;5025217;28;20081;-62
2021/08/05 13:50:12;;;;;;;5.07;2.00;;;;;;;;;;5029590;28;20128;-62
2021/08/05 13:52:38;;;;;;;3.10;2.08;;;;;;;;;;5019312;28;20505;-61
2021/08/05 13:55:05;;;;;;;3.70;2.40;;;;;;;;;;5023479;28;20084;-62
2021/08/05 13:57:31;;;;;;;4.00;2.20;;;;;;;;;;5022646;28;20095;-62
2021/08/05 13:59:58;;;;;;;3.33;2.27;;;;;;;;;;5026985;28;20124;-61
2021/08/05 14:02:25;;;;;;;3.60;2.55;;;;;;;;;;5017415;28;20057;-62
2021/08/05 14:04:56;;;;;;;3.50;2.40;;;;;;;;;;5019718;28;20054;-62
2021/08/05 14:07:23;;;;;;;4.00;2.28;;;;;;;;;;5013707;28;20081;-62
2021/08/05 14:09:49;;;;;;;3.70;2.20;;;;;;;;;;5022119;28;20076;-62
2021/08/05 14:12:16;;;;;;;3.15;2.38;;;;;;;;;;5019700;28;20108;-62
2021/08/05 14:14:42;;;;;;;3.63;2.17;;;;;;;;;;5023519;28;20077;-62
2021/08/05 14:17:09;;;;;;;4.60;2.50;;;;;;;;;;5022582;28;20150;-62
2021/08/05 14:19:36;;;;;;;3.63;2.40;;;;;;;;;;5020987;28;20565;-62
2021/08/05 14:22:02;;;;;;;5.93;2.60;;;;;;;;;;5025433;28;20077;-62
2021/08/05 14:24:29;;;;;;;5.38;2.15;;;;;;;;;;5022538;28;20085;-62
2021/08/05 14:26:57;;;;;;;3.80;2.53;;;;;;;;;;5024332;28;20057;-62
2021/08/05 14:29:24;;;;;;;3.20;2.25;;;;;;;;;;5022429;28;20158;-62
2021/08/05 14:31:50;;;;;;;3.83;2.47;;;;;;;;;;5024510;28;20104;-62
2021/08/05 14:34:17;;;;;;;3.55;2.33;;;;;;;;;;5022645;28;20164;-62
2021/08/05 14:36:44;;;;;;;;;;;;;;;;;;5018808;28;20145;-62
2021/08/05 14:39:10;;;;;;;3.20;2.20;;;;;;;;;;5016173;28;20025;-65
2021/08/05 14:41:37;;;;;;;3.42;2.30;;;;;;;;;;5023042;28;20092;-65
2021/08/05 14:44:07;;;;;;;9.38;2.30;;;;;;;;;;5016418;28;20402;-65
2021/08/05 14:46:33;;;;;;;6.68;2.42;;;;;;;;;;5004739;28;20153;-64
2021/08/05 14:49:00;;;;;;;3.83;2.30;;;;;;;;;;4990499;28;20050;-65